createdAt,value
2019-01-10T00:02:08.377Z,0.2
2019-01-10T00:07:05.297Z,0.2
2019-01-10T00:12:01.925Z,0.1
2019-01-10T00:16:58.664Z,0.1
2019-01-10T00:21:55.213Z,0.1
2019-01-10T00:26:52.084Z,0
2019-01-10T00:31:48.587Z,0
2019-01-10T00:36:45.350Z,0.1
2019-01-10T00:41:41.775Z,-0.5
2019-01-10T00:46:38.462Z,0.2
2019-01-10T00:51:35.308Z,0.2
2019-01-10T00:56:32.359Z,0.3
2019-01-10T01:01:29.505Z,0.3
2019-01-10T01:06:26.016Z,0.3
2019-01-10T01:11:22.654Z,0.3
2019-01-10T01:16:19.478Z,0.3
2019-01-10T01:21:16.247Z,0.3
2019-01-10T01:26:13.071Z,0.3
2019-01-10T01:31:09.704Z,0.3
2019-01-10T01:36:06.531Z,0.3
2019-01-10T01:41:03.254Z,0.4
2019-01-10T01:45:59.928Z,0.3
2019-01-10T01:50:56.568Z,0.4
2019-01-10T01:55:53.578Z,0.5
2019-01-10T02:00:50.295Z,0.5
2019-01-10T02:05:47.497Z,0.4
2019-01-10T02:10:44.114Z,0.4
2019-01-10T02:15:40.872Z,0.4
2019-01-10T02:20:37.786Z,0.5
2019-01-10T02:25:34.731Z,0.4
2019-01-10T02:30:41.599Z,0.4
2019-01-10T02:35:28.278Z,0.4
2019-01-10T02:40:25.110Z,0.3
2019-01-10T02:45:21.976Z,0.5
2019-01-10T02:50:18.862Z,0.5
2019-01-10T02:55:15.657Z,0.5
2019-01-10T03:00:12.045Z,0.4
2019-01-10T03:05:08.820Z,0.3
2019-01-10T03:10:06.033Z,0.4
2019-01-10T03:15:02.586Z,0.3
2019-01-10T03:19:59.382Z,0.3
2019-01-10T03:24:56.145Z,0.3
2019-01-10T03:29:52.796Z,0.3
2019-01-10T03:34:49.584Z,0.3
2019-01-10T03:39:46.303Z,0.3
2019-01-10T03:44:43.151Z,0
2019-01-10T03:49:39.985Z,0.3
2019-01-10T03:54:36.951Z,0.4
2019-01-10T03:59:33.529Z,0.4
2019-01-10T04:04:30.252Z,0.3
2019-01-10T04:09:26.727Z,0.2
2019-01-10T04:14:23.064Z,0.3
2019-01-10T04:19:19.553Z,0.3
2019-01-10T04:24:16.562Z,0.4
2019-01-10T04:29:13.369Z,0.5
2019-01-10T04:34:10.017Z,0.5
2019-01-10T04:39:07.070Z,0.4
2019-01-10T04:44:07.100Z,0.4
2019-01-10T04:49:00.204Z,0.4
2019-01-10T04:53:56.530Z,0.4
2019-01-10T04:58:52.779Z,0.4
2019-01-10T05:03:49.413Z,0.4
2019-01-10T05:08:46.195Z,0.5
2019-01-10T05:13:42.901Z,0.4
2019-01-10T05:18:39.731Z,0.6
2019-01-10T05:23:36.466Z,0.6
2019-01-10T05:28:33.144Z,0.6
2019-01-10T05:33:29.938Z,0.6
2019-01-10T05:38:26.830Z,0.6
2019-01-10T05:43:23.545Z,0.5
2019-01-10T05:48:20.202Z,0.5
2019-01-10T05:53:17.044Z,0.5
2019-01-10T05:58:13.529Z,0.5
2019-01-10T06:03:10.319Z,0.4
2019-01-10T06:08:06.396Z,0.4
2019-01-10T06:13:03.158Z,0.4
2019-01-10T06:18:00.021Z,0.4
2019-01-10T06:22:56.966Z,0.4
2019-01-10T06:27:53.745Z,0.5
2019-01-10T06:32:50.500Z,0.4
2019-01-10T06:37:47.060Z,0.4
2019-01-10T06:42:43.789Z,0.4
2019-01-10T06:47:40.628Z,0.4
2019-01-10T06:52:37.465Z,0.4
2019-01-10T06:57:34.328Z,0.5
2019-01-10T07:02:31.285Z,0.4
2019-01-10T07:07:27.891Z,0.5
2019-01-10T07:12:24.623Z,0.5
2019-01-10T07:17:21.473Z,0.5
2019-01-10T07:22:18.162Z,0.3
2019-01-10T07:27:14.931Z,0.3
2019-01-10T07:32:11.717Z,0.5
2019-01-10T07:37:12.779Z,0.5
2019-01-10T07:42:04.859Z,0.5
2019-01-10T07:47:01.489Z,0.6
2019-01-10T07:51:58.177Z,0.6
2019-01-10T07:56:54.798Z,0.6
2019-01-10T08:01:51.445Z,0.5
2019-01-10T08:06:47.967Z,0.6
2019-01-10T08:11:44.671Z,0.6
2019-01-10T08:16:41.586Z,0.6
2019-01-10T08:21:38.378Z,-0.2
2019-01-10T08:26:35.060Z,0.8
2019-01-10T08:31:31.961Z,0.8
2019-01-10T08:36:32.520Z,0.9
2019-01-10T08:41:25.848Z,0.9
2019-01-10T08:46:22.898Z,1
2019-01-10T08:51:20.288Z,1
2019-01-10T08:56:17.110Z,1
2019-01-10T09:01:13.871Z,1.1
2019-01-10T09:06:10.443Z,1.1
2019-01-10T09:11:07.431Z,1.2
2019-01-10T09:16:04.198Z,1.4
2019-01-10T09:21:04.321Z,1.3
2019-01-10T09:25:57.759Z,1.3
2019-01-10T09:30:54.657Z,1.4
2019-01-10T09:35:51.677Z,1.5
2019-01-10T09:40:48.271Z,1.6
2019-01-10T09:45:44.841Z,1.7
2019-01-10T09:50:41.623Z,1.8
2019-01-10T09:55:38.292Z,1.8
2019-01-10T10:00:34.996Z,1.8
2019-01-10T10:05:31.862Z,1.9
2019-01-10T10:10:28.792Z,1.8
2019-01-10T10:15:25.500Z,1.8
2019-01-10T10:20:22.523Z,0.3
2019-01-10T10:25:18.892Z,1.9
2019-01-10T10:30:15.744Z,1.8
2019-01-10T10:35:12.471Z,1.9
2019-01-10T10:40:09.315Z,1.9
2019-01-10T10:45:06.238Z,1.9
2019-01-10T10:50:02.881Z,1.9
2019-01-10T10:55:00.425Z,1.9
2019-01-10T10:59:57.052Z,1.8
2019-01-10T11:04:53.202Z,1.8
2019-01-10T11:09:49.982Z,1.8
2019-01-10T11:14:48.339Z,1.3
2019-01-10T11:19:43.481Z,1.8
2019-01-10T11:24:40.051Z,1.9
2019-01-10T11:29:36.783Z,2
2019-01-10T11:34:33.591Z,1.9
2019-01-10T11:39:30.471Z,2
2019-01-10T11:44:27.282Z,2
2019-01-10T11:49:23.882Z,2
2019-01-10T11:54:20.996Z,1.2
2019-01-10T11:59:17.733Z,2.1
2019-01-10T12:04:14.577Z,2.1
2019-01-10T12:09:11.577Z,2.1
2019-01-10T12:14:08.444Z,2.1
2019-01-10T12:19:05.897Z,2.2
2019-01-10T12:24:02.494Z,2.2
2019-01-10T12:28:59.251Z,2.2
2019-01-10T12:33:55.952Z,2.1
2019-01-10T12:43:49.388Z,2.2
2019-01-10T12:48:46.249Z,2.1
2019-01-10T12:53:43.028Z,2.1
2019-01-10T12:58:39.893Z,2
2019-01-10T13:03:36.737Z,2.1
2019-01-10T13:08:33.321Z,2
2019-01-10T13:13:29.871Z,2
2019-01-10T13:18:27.136Z,2.2
2019-01-10T13:23:23.671Z,2.1
2019-01-10T13:28:20.573Z,2.1
2019-01-10T13:33:17.385Z,2.2
2019-01-10T13:38:14.064Z,2.1
2019-01-10T13:43:11.206Z,2
2019-01-10T13:48:07.829Z,2
2019-01-10T13:53:04.403Z,2
2019-01-10T13:58:01.170Z,2
2019-01-10T14:02:57.721Z,2
2019-01-10T14:07:54.469Z,2
2019-01-10T14:12:51.239Z,2.1
2019-01-10T14:17:47.991Z,1.3
2019-01-10T14:22:44.914Z,2.2
2019-01-10T14:27:41.692Z,2.2
2019-01-10T14:32:37.773Z,2.2
2019-01-10T14:37:34.503Z,2.2
2019-01-10T14:42:31.482Z,1.5
2019-01-10T14:47:28.236Z,2.2
2019-01-10T14:52:25.076Z,2.2
2019-01-10T14:57:21.910Z,2.2
2019-01-10T15:02:19.247Z,1.4
2019-01-10T15:07:16.020Z,2.2
2019-01-10T15:12:12.661Z,2.2
2019-01-10T15:17:13.757Z,2.2
2019-01-10T15:22:06.075Z,2.1
2019-01-10T15:27:02.949Z,2.2
2019-01-10T15:31:59.611Z,2.2
2019-01-10T15:36:56.031Z,2.2
2019-01-10T15:41:52.677Z,2.2
2019-01-10T15:46:49.403Z,2.1
2019-01-10T15:51:46.901Z,-0.3
2019-01-10T15:56:43.405Z,2.1
2019-01-10T16:01:39.926Z,2.1
2019-01-10T16:06:36.639Z,2.1
2019-01-10T16:11:32.682Z,2
2019-01-10T16:16:29.501Z,2
2019-01-10T16:21:25.583Z,1.9
2019-01-10T16:26:22.272Z,1.9
2019-01-10T16:31:19.073Z,1
2019-01-10T16:36:15.628Z,1.9
2019-01-10T16:41:11.963Z,1.9
2019-01-10T16:46:08.577Z,1.9
2019-01-10T16:51:05.007Z,1.9
2019-01-10T16:56:01.869Z,2
2019-01-10T17:00:58.193Z,2
2019-01-10T17:05:55.502Z,1.5
2019-01-10T17:10:52.080Z,1.9
2019-01-10T17:15:48.936Z,2
2019-01-10T17:20:45.334Z,1.9
2019-01-10T17:25:41.902Z,2
2019-01-10T17:30:38.761Z,2.1
2019-01-10T17:35:35.765Z,2.1
2019-01-10T17:40:32.685Z,1.7
2019-01-10T17:45:29.335Z,2.1
2019-01-10T17:50:25.952Z,2.1
2019-01-10T17:55:23.023Z,2.1
2019-01-10T18:00:19.644Z,2
2019-01-10T18:05:16.402Z,2
2019-01-10T18:10:13.011Z,1.9
2019-01-10T18:15:10.550Z,1
2019-01-10T18:20:07.210Z,2
2019-01-10T18:25:03.942Z,1.9
2019-01-10T18:30:00.480Z,1.9
2019-01-10T18:34:57.202Z,2
2019-01-10T18:39:53.658Z,1.8
2019-01-10T18:44:50.551Z,1.9
2019-01-10T18:49:46.881Z,1.9
2019-01-10T18:54:43.812Z,1.9
2019-01-10T18:59:40.598Z,1
2019-01-10T19:04:37.368Z,1.9
2019-01-10T19:09:34.209Z,2
2019-01-10T19:14:31.080Z,1.9
2019-01-10T19:19:27.577Z,1.9
2019-01-10T19:24:24.245Z,1.9
2019-01-10T19:29:20.314Z,2
2019-01-10T19:34:16.863Z,1.9
2019-01-10T19:44:10.309Z,2
2019-01-10T19:49:07.087Z,1.9
2019-01-10T19:54:04.116Z,1.9
2019-01-10T19:59:00.661Z,1.9
2019-01-10T20:03:57.722Z,2
2019-01-10T20:08:54.384Z,1.9
2019-01-10T20:13:50.136Z,0.8
2019-01-10T20:18:46.613Z,1.8
2019-01-10T20:23:44.718Z,1.8
2019-01-10T20:28:40.943Z,1.9
2019-01-10T20:33:37.547Z,1.8
2019-01-10T20:38:34.069Z,1.8
2019-01-10T20:43:30.759Z,1.6
2019-01-10T20:48:28.032Z,0.7
2019-01-10T20:53:24.925Z,0.4
2019-01-10T20:58:20.708Z,1.4
2019-01-10T21:03:17.407Z,0.4
2019-01-10T21:08:13.378Z,1.3
2019-01-10T21:13:09.949Z,1.3
2019-01-10T21:18:06.283Z,1.3
2019-01-10T21:23:03.088Z,1.3
2019-01-10T21:28:00.105Z,1.3
2019-01-10T21:32:56.866Z,1.3
2019-01-10T21:42:50.314Z,1.2
2019-01-10T21:47:46.790Z,1.2
2019-01-10T21:52:43.620Z,1.1
2019-01-10T21:57:40.070Z,1.1
2019-01-10T22:02:36.132Z,1.1
2019-01-10T22:07:32.829Z,1.1
2019-01-10T22:12:29.880Z,0.5
2019-01-10T22:17:26.455Z,0.2
2019-01-10T22:22:22.920Z,1.1
2019-01-10T22:27:19.560Z,1.1
2019-01-10T22:32:16.345Z,1.1
2019-01-10T22:37:12.977Z,1.1
2019-01-10T22:42:09.696Z,1.1
2019-01-10T22:47:06.680Z,1.1
2019-01-10T22:52:03.552Z,1.2
2019-01-10T22:57:00.402Z,1.1
2019-01-10T23:01:57.132Z,1.1
2019-01-10T23:06:53.898Z,1.1
2019-01-10T23:11:50.810Z,1.1
2019-01-10T23:16:47.397Z,1.1
2019-01-10T23:21:44.358Z,1.1
2019-01-10T23:26:40.957Z,1
2019-01-10T23:31:37.777Z,0.9
2019-01-10T23:36:34.776Z,0.9
2019-01-10T23:41:31.690Z,0.8
2019-01-10T23:46:28.739Z,0.6
2019-01-10T23:51:25.315Z,0.5
2019-01-10T23:56:21.884Z,0.4
